sensor_id;sensor_type;location;lat;lon;timestamp;P1;durP1;ratioP1;P2;durP2;ratioP2
23288;SDS011;11813;50.834;4.280;2022-11-15T00:01:34;24.80;;;16.60;;
23288;SDS011;11813;50.834;4.280;2022-11-15T00:04:02;25.87;;;16.63;;
23288;SDS011;11813;50.834;4.280;2022-11-15T00:06:29;25.63;;;15.30;;
23288;SDS011;11813;50.834;4.280;2022-11-15T00:08:54;25.83;;;16.77;;
23288;SDS011;11813;50.834;4.280;2022-11-15T00:11:22;26.30;;;16.87;;
23288;SDS011;11813;50.834;4.280;2022-11-15T00:13:47;28.93;;;17.40;;
23288;SDS011;11813;50.834;4.280;2022-11-15T00:16:13;27.13;;;17.00;;
23288;SDS011;11813;50.834;4.280;2022-11-15T00:18:39;26.70;;;16.47;;
23288;SDS011;11813;50.834;4.280;2022-11-15T00:21:06;29.93;;;16.83;;
23288;SDS011;11813;50.834;4.280;2022-11-15T00:23:35;27.63;;;17.27;;
23288;SDS011;11813;50.834;4.280;2022-11-15T00:26:01;22.43;;;15.93;;
23288;SDS011;11813;50.834;4.280;2022-11-15T00:28:27;26.43;;;16.70;;
23288;SDS011;11813;50.834;4.280;2022-11-15T00:30:52;25.63;;;17.03;;
23288;SDS011;11813;50.834;4.280;2022-11-15T00:33:18;29.03;;;16.83;;
23288;SDS011;11813;50.834;4.280;2022-11-15T00:35:44;24.80;;;17.30;;
23288;SDS011;11813;50.834;4.280;2022-11-15T00:38:09;25.20;;;16.57;;
23288;SDS011;11813;50.834;4.280;2022-11-15T00:40:35;23.87;;;16.47;;
23288;SDS011;11813;50.834;4.280;2022-11-15T00:43:00;23.47;;;16.33;;
23288;SDS011;11813;50.834;4.280;2022-11-15T00:45:26;27.47;;;17.33;;
23288;SDS011;11813;50.834;4.280;2022-11-15T00:47:52;30.93;;;16.67;;
23288;SDS011;11813;50.834;4.280;2022-11-15T00:50:18;31.27;;;16.50;;
23288;SDS011;11813;50.834;4.280;2022-11-15T00:52:44;27.13;;;17.03;;
23288;SDS011;11813;50.834;4.280;2022-11-15T00:55:17;27.23;;;16.97;;
23288;SDS011;11813;50.834;4.280;2022-11-15T00:57:44;28.93;;;16.77;;
23288;SDS011;11813;50.834;4.280;2022-11-15T01:00:10;29.27;;;16.83;;
23288;SDS011;11813;50.834;4.280;2022-11-15T01:02:36;31.17;;;17.37;;
23288;SDS011;11813;50.834;4.280;2022-11-15T01:05:02;32.03;;;18.30;;
23288;SDS011;11813;50.834;4.280;2022-11-15T01:07:28;26.30;;;16.60;;
23288;SDS011;11813;50.834;4.280;2022-11-15T01:09:53;28.03;;;17.33;;
23288;SDS011;11813;50.834;4.280;2022-11-15T01:12:19;30.67;;;18.90;;
23288;SDS011;11813;50.834;4.280;2022-11-15T01:14:44;28.57;;;17.47;;
23288;SDS011;11813;50.834;4.280;2022-11-15T01:17:10;27.57;;;17.83;;
23288;SDS011;11813;50.834;4.280;2022-11-15T01:19:36;30.07;;;16.60;;
23288;SDS011;11813;50.834;4.280;2022-11-15T01:22:01;25.87;;;17.27;;
23288;SDS011;11813;50.834;4.280;2022-11-15T01:24:27;32.17;;;17.70;;
23288;SDS011;11813;50.834;4.280;2022-11-15T01:26:53;29.17;;;17.23;;
23288;SDS011;11813;50.834;4.280;2022-11-15T01:29:18;29.77;;;16.03;;
23288;SDS011;11813;50.834;4.280;2022-11-15T01:31:44;25.33;;;16.33;;
23288;SDS011;11813;50.834;4.280;2022-11-15T01:34:10;28.47;;;17.00;;
23288;SDS011;11813;50.834;4.280;2022-11-15T01:36:35;26.10;;;16.63;;
23288;SDS011;11813;50.834;4.280;2022-11-15T01:39:01;25.63;;;15.93;;
23288;SDS011;11813;50.834;4.280;2022-11-15T01:41:28;28.90;;;16.10;;
23288;SDS011;11813;50.834;4.280;2022-11-15T01:43:57;26.30;;;15.00;;
23288;SDS011;11813;50.834;4.280;2022-11-15T01:46:42;24.60;;;14.77;;
23288;SDS011;11813;50.834;4.280;2022-11-15T01:49:13;24.83;;;16.27;;
23288;SDS011;11813;50.834;4.280;2022-11-15T01:51:42;25.83;;;15.57;;
23288;SDS011;11813;50.834;4.280;2022-11-15T01:54:08;26.40;;;15.30;;
23288;SDS011;11813;50.834;4.280;2022-11-15T01:56:47;23.93;;;14.47;;
23288;SDS011;11813;50.834;4.280;2022-11-15T01:59:16;23.80;;;13.73;;
23288;SDS011;11813;50.834;4.280;2022-11-15T02:01:43;25.33;;;16.13;;
23288;SDS011;11813;50.834;4.280;2022-11-15T02:04:11;25.67;;;14.93;;
23288;SDS011;11813;50.834;4.280;2022-11-15T02:06:40;24.93;;;14.33;;
23288;SDS011;11813;50.834;4.280;2022-11-15T02:09:07;21.93;;;14.63;;
23288;SDS011;11813;50.834;4.280;2022-11-15T02:11:34;23.93;;;14.43;;
23288;SDS011;11813;50.834;4.280;2022-11-15T02:14:00;23.70;;;15.13;;
23288;SDS011;11813;50.834;4.280;2022-11-15T02:16:31;27.23;;;15.23;;
23288;SDS011;11813;50.834;4.280;2022-11-15T02:27:49;24.87;;;14.40;;
23288;SDS011;11813;50.834;4.280;2022-11-15T02:36:09;20.40;;;13.27;;
23288;SDS011;11813;50.834;4.280;2022-11-15T02:41:35;19.43;;;11.80;;
23288;SDS011;11813;50.834;4.280;2022-11-15T02:44:23;21.60;;;12.77;;
23288;SDS011;11813;50.834;4.280;2022-11-15T02:46:59;21.10;;;13.10;;
23288;SDS011;11813;50.834;4.280;2022-11-15T02:49:37;25.23;;;13.73;;
23288;SDS011;11813;50.834;4.280;2022-11-15T02:52:05;19.73;;;12.60;;
23288;SDS011;11813;50.834;4.280;2022-11-15T02:54:32;18.03;;;11.87;;
23288;SDS011;11813;50.834;4.280;2022-11-15T02:57:00;27.20;;;12.50;;
23288;SDS011;11813;50.834;4.280;2022-11-15T03:05:25;14.87;;;10.90;;
23288;SDS011;11813;50.834;4.280;2022-11-15T03:08:18;15.50;;;10.10;;
23288;SDS011;11813;50.834;4.280;2022-11-15T03:11:18;18.27;;;10.53;;
23288;SDS011;11813;50.834;4.280;2022-11-15T03:19:48;13.93;;;9.37;;
23288;SDS011;11813;50.834;4.280;2022-11-15T03:22:18;17.80;;;11.23;;
23288;SDS011;11813;50.834;4.280;2022-11-15T03:24:50;15.90;;;9.60;;
23288;SDS011;11813;50.834;4.280;2022-11-15T03:27:20;15.57;;;8.93;;
23288;SDS011;11813;50.834;4.280;2022-11-15T03:29:53;17.03;;;9.63;;
23288;SDS011;11813;50.834;4.280;2022-11-15T03:32:24;15.73;;;8.70;;
23288;SDS011;11813;50.834;4.280;2022-11-15T03:35:01;13.30;;;8.23;;
23288;SDS011;11813;50.834;4.280;2022-11-15T03:40:39;14.57;;;7.87;;
23288;SDS011;11813;50.834;4.280;2022-11-15T03:45:54;15.20;;;9.50;;
23288;SDS011;11813;50.834;4.280;2022-11-15T03:48:26;15.37;;;7.67;;
23288;SDS011;11813;50.834;4.280;2022-11-15T03:50:55;10.33;;;6.60;;
23288;SDS011;11813;50.834;4.280;2022-11-15T03:53:21;11.53;;;7.90;;
23288;SDS011;11813;50.834;4.280;2022-11-15T03:55:47;15.90;;;7.50;;
23288;SDS011;11813;50.834;4.280;2022-11-15T03:58:12;11.43;;;7.13;;
23288;SDS011;11813;50.834;4.280;2022-11-15T04:00:38;19.60;;;7.50;;
23288;SDS011;11813;50.834;4.280;2022-11-15T04:03:04;12.17;;;7.70;;
23288;SDS011;11813;50.834;4.280;2022-11-15T04:05:30;14.77;;;7.63;;
23288;SDS011;11813;50.834;4.280;2022-11-15T04:07:55;11.73;;;7.47;;
23288;SDS011;11813;50.834;4.280;2022-11-15T04:10:21;10.87;;;7.03;;
23288;SDS011;11813;50.834;4.280;2022-11-15T04:12:47;10.57;;;6.47;;
23288;SDS011;11813;50.834;4.280;2022-11-15T04:15:19;10.37;;;6.83;;
23288;SDS011;11813;50.834;4.280;2022-11-15T04:20:16;8.27;;;6.63;;
23288;SDS011;11813;50.834;4.280;2022-11-15T04:23:06;12.87;;;6.90;;
23288;SDS011;11813;50.834;4.280;2022-11-15T04:25:53;8.80;;;6.67;;
23288;SDS011;11813;50.834;4.280;2022-11-15T04:28:20;13.27;;;6.60;;
23288;SDS011;11813;50.834;4.280;2022-11-15T04:30:47;12.70;;;6.40;;
23288;SDS011;11813;50.834;4.280;2022-11-15T04:33:13;13.53;;;6.57;;
23288;SDS011;11813;50.834;4.280;2022-11-15T04:35:38;12.03;;;6.70;;
23288;SDS011;11813;50.834;4.280;2022-11-15T04:38:05;12.10;;;5.87;;
23288;SDS011;11813;50.834;4.280;2022-11-15T04:40:32;11.07;;;6.43;;
23288;SDS011;11813;50.834;4.280;2022-11-15T04:42:57;7.90;;;5.73;;
23288;SDS011;11813;50.834;4.280;2022-11-15T04:45:23;8.33;;;5.47;;
23288;SDS011;11813;50.834;4.280;2022-11-15T04:47:49;11.87;;;6.27;;
23288;SDS011;11813;50.834;4.280;2022-11-15T04:50:14;10.33;;;5.20;;
23288;SDS011;11813;50.834;4.280;2022-11-15T04:52:41;11.60;;;5.03;;
23288;SDS011;11813;50.834;4.280;2022-11-15T04:55:10;8.33;;;5.33;;
23288;SDS011;11813;50.834;4.280;2022-11-15T04:57:36;8.97;;;5.00;;
23288;SDS011;11813;50.834;4.280;2022-11-15T05:00:06;12.53;;;5.33;;
23288;SDS011;11813;50.834;4.280;2022-11-15T05:02:37;9.73;;;5.17;;
23288;SDS011;11813;50.834;4.280;2022-11-15T05:05:21;9.03;;;4.87;;
23288;SDS011;11813;50.834;4.280;2022-11-15T05:07:46;10.70;;;4.63;;
23288;SDS011;11813;50.834;4.280;2022-11-15T05:10:12;9.43;;;5.43;;
23288;SDS011;11813;50.834;4.280;2022-11-15T05:12:38;7.50;;;4.87;;
23288;SDS011;11813;50.834;4.280;2022-11-15T05:15:03;14.23;;;5.03;;
23288;SDS011;11813;50.834;4.280;2022-11-15T05:17:29;8.30;;;5.77;;
23288;SDS011;11813;50.834;4.280;2022-11-15T05:19:55;13.63;;;6.10;;
23288;SDS011;11813;50.834;4.280;2022-11-15T05:22:21;9.03;;;4.77;;
23288;SDS011;11813;50.834;4.280;2022-11-15T05:24:47;8.83;;;5.80;;
23288;SDS011;11813;50.834;4.280;2022-11-15T05:27:12;9.93;;;4.97;;
23288;SDS011;11813;50.834;4.280;2022-11-15T05:29:38;9.93;;;5.30;;
23288;SDS011;11813;50.834;4.280;2022-11-15T05:32:04;9.03;;;5.23;;
23288;SDS011;11813;50.834;4.280;2022-11-15T05:34:31;9.23;;;4.90;;
23288;SDS011;11813;50.834;4.280;2022-11-15T05:36:57;13.70;;;5.00;;
23288;SDS011;11813;50.834;4.280;2022-11-15T05:39:23;12.07;;;4.90;;
23288;SDS011;11813;50.834;4.280;2022-11-15T05:41:52;7.57;;;3.83;;
23288;SDS011;11813;50.834;4.280;2022-11-15T05:44:22;10.90;;;4.40;;
23288;SDS011;11813;50.834;4.280;2022-11-15T05:46:50;9.13;;;4.50;;
23288;SDS011;11813;50.834;4.280;2022-11-15T05:49:19;7.57;;;4.47;;
23288;SDS011;11813;50.834;4.280;2022-11-15T05:51:47;7.67;;;3.87;;
23288;SDS011;11813;50.834;4.280;2022-11-15T05:54:14;10.00;;;4.57;;
23288;SDS011;11813;50.834;4.280;2022-11-15T05:56:42;8.97;;;4.33;;
23288;SDS011;11813;50.834;4.280;2022-11-15T05:59:08;8.83;;;4.37;;
23288;SDS011;11813;50.834;4.280;2022-11-15T06:01:34;9.43;;;5.13;;
23288;SDS011;11813;50.834;4.280;2022-11-15T06:04:00;7.80;;;4.60;;
23288;SDS011;11813;50.834;4.280;2022-11-15T06:06:27;11.73;;;4.73;;
23288;SDS011;11813;50.834;4.280;2022-11-15T06:08:53;10.47;;;4.50;;
23288;SDS011;11813;50.834;4.280;2022-11-15T06:11:18;11.03;;;5.40;;
23288;SDS011;11813;50.834;4.280;2022-11-15T06:13:44;9.87;;;4.27;;
23288;SDS011;11813;50.834;4.280;2022-11-15T06:16:09;10.90;;;5.30;;
23288;SDS011;11813;50.834;4.280;2022-11-15T06:18:35;9.90;;;5.27;;
23288;SDS011;11813;50.834;4.280;2022-11-15T06:21:01;9.80;;;5.00;;
23288;SDS011;11813;50.834;4.280;2022-11-15T06:23:28;9.83;;;5.47;;
23288;SDS011;11813;50.834;4.280;2022-11-15T06:25:57;13.83;;;5.40;;
23288;SDS011;11813;50.834;4.280;2022-11-15T06:28:24;9.73;;;5.17;;
23288;SDS011;11813;50.834;4.280;2022-11-15T06:30:50;9.43;;;4.97;;
23288;SDS011;11813;50.834;4.280;2022-11-15T06:33:15;10.63;;;5.47;;
23288;SDS011;11813;50.834;4.280;2022-11-15T06:35:41;15.70;;;5.17;;
23288;SDS011;11813;50.834;4.280;2022-11-15T06:38:10;9.30;;;5.20;;
23288;SDS011;11813;50.834;4.280;2022-11-15T06:40:36;8.87;;;5.37;;
23288;SDS011;11813;50.834;4.280;2022-11-15T06:43:04;7.50;;;5.37;;
23288;SDS011;11813;50.834;4.280;2022-11-15T06:45:30;8.13;;;4.83;;
23288;SDS011;11813;50.834;4.280;2022-11-15T06:47:57;13.17;;;5.80;;
23288;SDS011;11813;50.834;4.280;2022-11-15T06:50:23;10.40;;;5.10;;
23288;SDS011;11813;50.834;4.280;2022-11-15T06:52:49;16.47;;;5.67;;
23288;SDS011;11813;50.834;4.280;2022-11-15T06:55:14;9.87;;;4.97;;
23288;SDS011;11813;50.834;4.280;2022-11-15T06:57:46;9.77;;;4.87;;
23288;SDS011;11813;50.834;4.280;2022-11-15T07:00:13;11.30;;;5.10;;
23288;SDS011;11813;50.834;4.280;2022-11-15T07:02:39;12.27;;;5.40;;
23288;SDS011;11813;50.834;4.280;2022-11-15T07:05:05;10.93;;;5.47;;
23288;SDS011;11813;50.834;4.280;2022-11-15T07:07:30;17.77;;;5.40;;
23288;SDS011;11813;50.834;4.280;2022-11-15T07:09:56;7.87;;;5.43;;
23288;SDS011;11813;50.834;4.280;2022-11-15T07:12:21;8.87;;;5.13;;
23288;SDS011;11813;50.834;4.280;2022-11-15T07:14:47;13.43;;;4.70;;
23288;SDS011;11813;50.834;4.280;2022-11-15T07:17:13;11.77;;;4.83;;
23288;SDS011;11813;50.834;4.280;2022-11-15T07:19:38;10.00;;;5.00;;
23288;SDS011;11813;50.834;4.280;2022-11-15T07:22:04;12.77;;;5.73;;
23288;SDS011;11813;50.834;4.280;2022-11-15T07:24:30;9.93;;;5.20;;
23288;SDS011;11813;50.834;4.280;2022-11-15T07:26:55;10.90;;;4.83;;
23288;SDS011;11813;50.834;4.280;2022-11-15T07:29:21;7.23;;;5.10;;
23288;SDS011;11813;50.834;4.280;2022-11-15T07:31:46;8.20;;;4.87;;
23288;SDS011;11813;50.834;4.280;2022-11-15T07:34:13;9.70;;;4.37;;
23288;SDS011;11813;50.834;4.280;2022-11-15T07:36:38;7.87;;;4.40;;
23288;SDS011;11813;50.834;4.280;2022-11-15T07:39:04;12.17;;;4.90;;
23288;SDS011;11813;50.834;4.280;2022-11-15T07:41:29;8.33;;;4.43;;
23288;SDS011;11813;50.834;4.280;2022-11-15T07:43:55;6.83;;;4.30;;
23288;SDS011;11813;50.834;4.280;2022-11-15T07:46:22;6.43;;;2.80;;
23288;SDS011;11813;50.834;4.280;2022-11-15T07:48:48;9.33;;;2.87;;
23288;SDS011;11813;50.834;4.280;2022-11-15T07:51:13;9.10;;;3.90;;
23288;SDS011;11813;50.834;4.280;2022-11-15T07:53:41;6.07;;;3.07;;
23288;SDS011;11813;50.834;4.280;2022-11-15T07:56:07;5.40;;;2.93;;
23288;SDS011;11813;50.834;4.280;2022-11-15T07:58:32;4.73;;;2.13;;
23288;SDS011;11813;50.834;4.280;2022-11-15T08:01:01;10.97;;;2.57;;
23288;SDS011;11813;50.834;4.280;2022-11-15T08:03:28;11.47;;;2.67;;
23288;SDS011;11813;50.834;4.280;2022-11-15T08:05:54;3.93;;;1.90;;
23288;SDS011;11813;50.834;4.280;2022-11-15T08:08:19;8.07;;;1.90;;
23288;SDS011;11813;50.834;4.280;2022-11-15T08:10:45;9.93;;;2.20;;
23288;SDS011;11813;50.834;4.280;2022-11-15T08:13:11;2.53;;;1.80;;
23288;SDS011;11813;50.834;4.280;2022-11-15T08:15:38;2.50;;;2.20;;
23288;SDS011;11813;50.834;4.280;2022-11-15T08:18:04;4.73;;;2.20;;
23288;SDS011;11813;50.834;4.280;2022-11-15T08:20:38;3.07;;;2.10;;
23288;SDS011;11813;50.834;4.280;2022-11-15T08:23:04;3.23;;;1.43;;
23288;SDS011;11813;50.834;4.280;2022-11-15T08:25:31;8.27;;;2.00;;
23288;SDS011;11813;50.834;4.280;2022-11-15T08:27:59;4.13;;;2.23;;
23288;SDS011;11813;50.834;4.280;2022-11-15T08:30:27;6.27;;;2.07;;
23288;SDS011;11813;50.834;4.280;2022-11-15T08:32:53;4.00;;;1.77;;
23288;SDS011;11813;50.834;4.280;2022-11-15T08:35:19;8.77;;;1.80;;
23288;SDS011;11813;50.834;4.280;2022-11-15T08:37:46;8.40;;;2.03;;
23288;SDS011;11813;50.834;4.280;2022-11-15T08:40:12;7.03;;;2.03;;
23288;SDS011;11813;50.834;4.280;2022-11-15T08:42:38;4.70;;;1.80;;
23288;SDS011;11813;50.834;4.280;2022-11-15T08:45:04;4.37;;;1.70;;
23288;SDS011;11813;50.834;4.280;2022-11-15T08:47:31;9.80;;;2.50;;
23288;SDS011;11813;50.834;4.280;2022-11-15T08:49:56;7.37;;;2.63;;
23288;SDS011;11813;50.834;4.280;2022-11-15T08:52:22;9.43;;;3.17;;
23288;SDS011;11813;50.834;4.280;2022-11-15T08:54:48;2.33;;;1.77;;
23288;SDS011;11813;50.834;4.280;2022-11-15T08:57:13;1.77;;;1.67;;
23288;SDS011;11813;50.834;4.280;2022-11-15T08:59:39;8.07;;;1.67;;
23288;SDS011;11813;50.834;4.280;2022-11-15T09:02:05;2.90;;;1.73;;
23288;SDS011;11813;50.834;4.280;2022-11-15T09:04:30;6.93;;;1.30;;
23288;SDS011;11813;50.834;4.280;2022-11-15T09:06:56;3.17;;;1.50;;
23288;SDS011;11813;50.834;4.280;2022-11-15T09:09:22;2.60;;;1.50;;
23288;SDS011;11813;50.834;4.280;2022-11-15T09:11:47;2.73;;;1.57;;
23288;SDS011;11813;50.834;4.280;2022-11-15T09:14:14;1.13;;;1.03;;
23288;SDS011;11813;50.834;4.280;2022-11-15T09:16:39;7.30;;;1.50;;
23288;SDS011;11813;50.834;4.280;2022-11-15T09:19:05;4.67;;;1.30;;
23288;SDS011;11813;50.834;4.280;2022-11-15T09:21:31;4.63;;;1.30;;
23288;SDS011;11813;50.834;4.280;2022-11-15T09:23:57;3.40;;;1.20;;
23288;SDS011;11813;50.834;4.280;2022-11-15T09:26:23;2.83;;;1.00;;
23288;SDS011;11813;50.834;4.280;2022-11-15T09:28:49;4.80;;;1.43;;
23288;SDS011;11813;50.834;4.280;2022-11-15T09:31:15;1.00;;;0.90;;
23288;SDS011;11813;50.834;4.280;2022-11-15T09:33:43;5.97;;;1.43;;
23288;SDS011;11813;50.834;4.280;2022-11-15T09:36:10;2.27;;;1.20;;
23288;SDS011;11813;50.834;4.280;2022-11-15T09:38:36;4.57;;;1.50;;
23288;SDS011;11813;50.834;4.280;2022-11-15T09:44:05;5.70;;;1.40;;
23288;SDS011;11813;50.834;4.280;2022-11-15T09:49:46;1.03;;;1.03;;
23288;SDS011;11813;50.834;4.280;2022-11-15T09:52:17;0.80;;;0.80;;
23288;SDS011;11813;50.834;4.280;2022-11-15T09:54:47;4.80;;;1.57;;
23288;SDS011;11813;50.834;4.280;2022-11-15T09:57:31;2.53;;;1.27;;
23288;SDS011;11813;50.834;4.280;2022-11-15T10:00:13;2.50;;;1.00;;
23288;SDS011;11813;50.834;4.280;2022-11-15T10:03:06;3.30;;;0.77;;
23288;SDS011;11813;50.834;4.280;2022-11-15T10:05:46;4.00;;;1.53;;
23288;SDS011;11813;50.834;4.280;2022-11-15T10:08:20;5.00;;;1.03;;
23288;SDS011;11813;50.834;4.280;2022-11-15T10:10:56;2.40;;;1.23;;
23288;SDS011;11813;50.834;4.280;2022-11-15T10:13:28;1.97;;;1.07;;
23288;SDS011;11813;50.834;4.280;2022-11-15T10:16:14;0.60;;;0.60;;
23288;SDS011;11813;50.834;4.280;2022-11-15T10:24:28;3.53;;;0.90;;
23288;SDS011;11813;50.834;4.280;2022-11-15T10:26:59;0.93;;;0.63;;
23288;SDS011;11813;50.834;4.280;2022-11-15T10:29:25;8.40;;;1.20;;
23288;SDS011;11813;50.834;4.280;2022-11-15T10:31:51;3.53;;;1.17;;
23288;SDS011;11813;50.834;4.280;2022-11-15T10:34:18;7.17;;;1.10;;
23288;SDS011;11813;50.834;4.280;2022-11-15T10:36:46;0.80;;;0.80;;
23288;SDS011;11813;50.834;4.280;2022-11-15T10:39:19;2.13;;;0.83;;
23288;SDS011;11813;50.834;4.280;2022-11-15T10:41:44;3.20;;;1.33;;
23288;SDS011;11813;50.834;4.280;2022-11-15T10:46:42;2.20;;;0.47;;
23288;SDS011;11813;50.834;4.280;2022-11-15T10:51:45;4.97;;;1.43;;
23288;SDS011;11813;50.834;4.280;2022-11-15T10:56:53;0.53;;;0.53;;
23288;SDS011;11813;50.834;4.280;2022-11-15T10:59:24;2.67;;;0.80;;
23288;SDS011;11813;50.834;4.280;2022-11-15T11:01:53;10.30;;;0.73;;
23288;SDS011;11813;50.834;4.280;2022-11-15T11:04:19;4.37;;;1.60;;
23288;SDS011;11813;50.834;4.280;2022-11-15T11:06:58;0.50;;;0.47;;
23288;SDS011;11813;50.834;4.280;2022-11-15T11:09:37;2.33;;;0.47;;
23288;SDS011;11813;50.834;4.280;2022-11-15T11:12:09;0.87;;;0.60;;
23288;SDS011;11813;50.834;4.280;2022-11-15T11:14:37;8.03;;;0.80;;
23288;SDS011;11813;50.834;4.280;2022-11-15T11:17:05;1.50;;;0.73;;
23288;SDS011;11813;50.834;4.280;2022-11-15T11:25:26;0.70;;;0.70;;
23288;SDS011;11813;50.834;4.280;2022-11-15T11:28:20;1.03;;;0.73;;
23288;SDS011;11813;50.834;4.280;2022-11-15T11:36:59;1.60;;;0.60;;
23288;SDS011;11813;50.834;4.280;2022-11-15T11:42:26;0.50;;;0.50;;
23288;SDS011;11813;50.834;4.280;2022-11-15T11:47:40;0.60;;;0.43;;
23288;SDS011;11813;50.834;4.280;2022-11-15T11:53:03;9.83;;;2.47;;
23288;SDS011;11813;50.834;4.280;2022-11-15T11:55:40;0.20;;;0.20;;
23288;SDS011;11813;50.834;4.280;2022-11-15T11:58:14;1.30;;;0.70;;
23288;SDS011;11813;50.834;4.280;2022-11-15T12:00:49;0.93;;;0.50;;
23288;SDS011;11813;50.834;4.280;2022-11-15T12:06:17;0.30;;;0.30;;
23288;SDS011;11813;50.834;4.280;2022-11-15T12:11:20;1.90;;;0.40;;
23288;SDS011;11813;50.834;4.280;2022-11-15T12:13:56;1.60;;;0.70;;
23288;SDS011;11813;50.834;4.280;2022-11-15T12:16:29;0.73;;;0.53;;
23288;SDS011;11813;50.834;4.280;2022-11-15T12:19:01;2.57;;;0.73;;
23288;SDS011;11813;50.834;4.280;2022-11-15T12:24:48;0.60;;;0.60;;
23288;SDS011;11813;50.834;4.280;2022-11-15T12:27:10;0.33;;;0.33;;
23288;SDS011;11813;50.834;4.280;2022-11-15T12:29:49;2.73;;;0.80;;
23288;SDS011;11813;50.834;4.280;2022-11-15T12:32:28;3.93;;;0.50;;
23288;SDS011;11813;50.834;4.280;2022-11-15T12:35:03;6.70;;;1.67;;
23288;SDS011;11813;50.834;4.280;2022-11-15T12:37:32;0.93;;;0.60;;
23288;SDS011;11813;50.834;4.280;2022-11-15T12:42:56;4.87;;;0.83;;
23288;SDS011;11813;50.834;4.280;2022-11-15T12:45:44;0.70;;;0.70;;
23288;SDS011;11813;50.834;4.280;2022-11-15T12:58:45;6.83;;;1.50;;
23288;SDS011;11813;50.834;4.280;2022-11-15T13:06:50;7.07;;;1.90;;
23288;SDS011;11813;50.834;4.280;2022-11-15T13:12:11;6.07;;;1.77;;
23288;SDS011;11813;50.834;4.280;2022-11-15T13:17:37;10.43;;;2.10;;
23288;SDS011;11813;50.834;4.280;2022-11-15T13:23:01;3.57;;;1.60;;
23288;SDS011;11813;50.834;4.280;2022-11-15T13:30:40;4.90;;;1.57;;
23288;SDS011;11813;50.834;4.280;2022-11-15T13:33:15;3.27;;;1.80;;
23288;SDS011;11813;50.834;4.280;2022-11-15T13:35:45;4.57;;;1.70;;
23288;SDS011;11813;50.834;4.280;2022-11-15T13:38:18;5.67;;;1.80;;
23288;SDS011;11813;50.834;4.280;2022-11-15T13:40:52;1.87;;;1.60;;
23288;SDS011;11813;50.834;4.280;2022-11-15T13:48:38;4.67;;;2.27;;
23288;SDS011;11813;50.834;4.280;2022-11-15T13:51:06;5.03;;;2.23;;
23288;SDS011;11813;50.834;4.280;2022-11-15T13:53:41;6.30;;;1.50;;
23288;SDS011;11813;50.834;4.280;2022-11-15T13:56:11;4.87;;;1.40;;
23288;SDS011;11813;50.834;4.280;2022-11-15T13:58:38;4.37;;;2.10;;
23288;SDS011;11813;50.834;4.280;2022-11-15T14:01:04;3.00;;;1.57;;
23288;SDS011;11813;50.834;4.280;2022-11-15T14:03:32;2.47;;;1.43;;
23288;SDS011;11813;50.834;4.280;2022-11-15T14:06:13;2.60;;;1.50;;
23288;SDS011;11813;50.834;4.280;2022-11-15T14:11:34;4.40;;;1.73;;
23288;SDS011;11813;50.834;4.280;2022-11-15T14:16:38;4.30;;;1.40;;
23288;SDS011;11813;50.834;4.280;2022-11-15T14:24:33;2.90;;;1.70;;
23288;SDS011;11813;50.834;4.280;2022-11-15T14:29:51;4.77;;;1.97;;
23288;SDS011;11813;50.834;4.280;2022-11-15T14:32:19;3.23;;;1.87;;
23288;SDS011;11813;50.834;4.280;2022-11-15T14:34:46;3.77;;;1.93;;
23288;SDS011;11813;50.834;4.280;2022-11-15T14:37:17;3.03;;;1.80;;
23288;SDS011;11813;50.834;4.280;2022-11-15T14:39:45;5.33;;;1.80;;
23288;SDS011;11813;50.834;4.280;2022-11-15T14:42:11;5.60;;;1.80;;
23288;SDS011;11813;50.834;4.280;2022-11-15T14:44:37;2.60;;;1.83;;
23288;SDS011;11813;50.834;4.280;2022-11-15T14:47:02;5.07;;;1.83;;
23288;SDS011;11813;50.834;4.280;2022-11-15T14:49:28;3.63;;;1.77;;
23288;SDS011;11813;50.834;4.280;2022-11-15T14:51:54;4.63;;;1.97;;
23288;SDS011;11813;50.834;4.280;2022-11-15T14:54:19;6.73;;;2.20;;
23288;SDS011;11813;50.834;4.280;2022-11-15T14:56:45;5.17;;;2.10;;
23288;SDS011;11813;50.834;4.280;2022-11-15T14:59:10;3.47;;;2.03;;
23288;SDS011;11813;50.834;4.280;2022-11-15T15:01:36;5.50;;;2.63;;
23288;SDS011;11813;50.834;4.280;2022-11-15T15:04:02;4.90;;;2.30;;
23288;SDS011;11813;50.834;4.280;2022-11-15T15:06:28;4.23;;;2.50;;
23288;SDS011;11813;50.834;4.280;2022-11-15T15:08:55;6.13;;;2.30;;
23288;SDS011;11813;50.834;4.280;2022-11-15T15:11:22;2.53;;;1.80;;
23288;SDS011;11813;50.834;4.280;2022-11-15T15:13:50;6.50;;;2.60;;
23288;SDS011;11813;50.834;4.280;2022-11-15T15:16:17;3.60;;;2.30;;
23288;SDS011;11813;50.834;4.280;2022-11-15T15:18:43;2.70;;;2.10;;
23288;SDS011;11813;50.834;4.280;2022-11-15T15:21:25;6.87;;;2.70;;
23288;SDS011;11813;50.834;4.280;2022-11-15T15:23:56;3.80;;;2.40;;
23288;SDS011;11813;50.834;4.280;2022-11-15T15:26:22;2.67;;;2.03;;
23288;SDS011;11813;50.834;4.280;2022-11-15T15:28:49;5.60;;;1.80;;
23288;SDS011;11813;50.834;4.280;2022-11-15T15:31:16;4.40;;;2.10;;
23288;SDS011;11813;50.834;4.280;2022-11-15T15:33:42;6.07;;;2.00;;
23288;SDS011;11813;50.834;4.280;2022-11-15T15:36:11;4.90;;;2.37;;
23288;SDS011;11813;50.834;4.280;2022-11-15T15:38:42;3.00;;;2.03;;
23288;SDS011;11813;50.834;4.280;2022-11-15T15:41:09;2.70;;;1.93;;
23288;SDS011;11813;50.834;4.280;2022-11-15T15:43:35;4.87;;;2.30;;
23288;SDS011;11813;50.834;4.280;2022-11-15T15:46:01;6.53;;;2.23;;
23288;SDS011;11813;50.834;4.280;2022-11-15T15:48:26;4.93;;;2.47;;
23288;SDS011;11813;50.834;4.280;2022-11-15T15:50:52;3.77;;;2.50;;
23288;SDS011;11813;50.834;4.280;2022-11-15T15:53:17;5.47;;;2.37;;
23288;SDS011;11813;50.834;4.280;2022-11-15T15:55:43;2.80;;;2.10;;
23288;SDS011;11813;50.834;4.280;2022-11-15T15:58:09;2.57;;;2.23;;
23288;SDS011;11813;50.834;4.280;2022-11-15T16:00:34;6.10;;;2.03;;
23288;SDS011;11813;50.834;4.280;2022-11-15T16:03:00;3.03;;;2.20;;
23288;SDS011;11813;50.834;4.280;2022-11-15T16:05:26;2.27;;;2.07;;
23288;SDS011;11813;50.834;4.280;2022-11-15T16:07:52;3.43;;;2.17;;
23288;SDS011;11813;50.834;4.280;2022-11-15T16:12:46;3.30;;;2.27;;
23288;SDS011;11813;50.834;4.280;2022-11-15T16:15:12;4.57;;;2.93;;
23288;SDS011;11813;50.834;4.280;2022-11-15T16:17:39;5.27;;;3.03;;
23288;SDS011;11813;50.834;4.280;2022-11-15T16:20:15;3.37;;;2.97;;
23288;SDS011;11813;50.834;4.280;2022-11-15T16:22:54;5.30;;;3.20;;
23288;SDS011;11813;50.834;4.280;2022-11-15T16:25:20;4.43;;;3.30;;
23288;SDS011;11813;50.834;4.280;2022-11-15T16:27:45;5.20;;;3.50;;
23288;SDS011;11813;50.834;4.280;2022-11-15T16:30:15;4.23;;;3.40;;
23288;SDS011;11813;50.834;4.280;2022-11-15T16:32:42;6.37;;;3.60;;
23288;SDS011;11813;50.834;4.280;2022-11-15T16:35:14;5.33;;;3.53;;
23288;SDS011;11813;50.834;4.280;2022-11-15T16:37:41;5.77;;;3.63;;
23288;SDS011;11813;50.834;4.280;2022-11-15T16:40:22;7.90;;;3.33;;
23288;SDS011;11813;50.834;4.280;2022-11-15T16:42:52;7.80;;;3.90;;
23288;SDS011;11813;50.834;4.280;2022-11-15T16:45:20;5.63;;;3.70;;
23288;SDS011;11813;50.834;4.280;2022-11-15T16:47:45;5.30;;;3.77;;
23288;SDS011;11813;50.834;4.280;2022-11-15T16:50:22;6.17;;;3.83;;
23288;SDS011;11813;50.834;4.280;2022-11-15T16:52:50;9.10;;;3.40;;
23288;SDS011;11813;50.834;4.280;2022-11-15T16:55:21;9.03;;;4.10;;
23288;SDS011;11813;50.834;4.280;2022-11-15T16:57:49;7.17;;;3.83;;
23288;SDS011;11813;50.834;4.280;2022-11-15T17:00:15;4.43;;;3.43;;
23288;SDS011;11813;50.834;4.280;2022-11-15T17:02:45;4.80;;;3.40;;
23288;SDS011;11813;50.834;4.280;2022-11-15T17:05:12;7.40;;;3.80;;
23288;SDS011;11813;50.834;4.280;2022-11-15T17:07:39;4.53;;;3.60;;
23288;SDS011;11813;50.834;4.280;2022-11-15T17:10:05;4.77;;;3.67;;